Time;durP1;ratioP1;P1;durP2;ratioP2;P2;SDS_P1;SDS_P2;PMS_P1;PMS_P2;Temp;Humidity;BMP_temperature;BMP_pressure;BME280_temperature;BME280_humidity;BME280_pressure;Samples;Min_cycle;Max_cycle;Signal;HPM_P1;HPM_P2
2023/03/04 00:00:50;;;;;;;;;;;;;;;-144.99;97.06;52497.00;5053975;28;19914;-68
2023/03/04 00:03:17;;;;;;;;;;;;;;;-144.99;97.60;52456.25;5047193;28;20402;-68
2023/03/04 00:05:43;;;;;;;;;;;;;;;-144.99;97.50;52488.84;5043235;28;19929;-69
2023/03/04 00:08:10;;;;;;;;;;;;;;;-144.99;97.15;52468.47;5041371;28;19925;-69
2023/03/04 00:10:36;;;;;;;;;;;;;;;-144.99;96.88;52456.25;5044524;28;19926;-68
2023/03/04 00:13:04;;;;;;;;;;;;;;;-144.99;96.94;52484.78;5042102;28;19933;-70
2023/03/04 00:15:31;;;;;;;;;;;;;;;-144.99;96.85;52464.41;5041185;28;19955;-68
2023/03/04 00:17:58;;;;;;;;;;;;;;;-144.99;96.74;52501.09;5036846;28;19987;-70
2023/03/04 00:20:24;;;;;;;;;;;;;;;-144.99;96.61;52480.72;5032794;28;19933;-69
2023/03/04 00:22:51;;;;;;;;;;;;;;;-144.99;95.70;52470.50;5033629;28;20357;-69
2023/03/04 00:25:17;;;;;;;;;;;;;;;-144.99;95.53;52480.72;5034073;28;20313;-68
2023/03/04 00:27:44;;;;;;;;;;;;;;;-144.99;95.13;52448.09;5025054;28;20105;-67
2023/03/04 00:30:12;;;;;;;;;;;;;;;-144.99;94.59;52437.91;5030047;28;19979;-68
2023/03/04 00:32:39;;;;;;;;;;;;;;;-144.99;94.46;52460.31;5030261;28;19925;-68
2023/03/04 00:35:06;;;;;;;;;;;;;;;-144.99;94.34;52472.56;5022792;28;20378;-67
2023/03/04 00:37:32;;;;;;;;;;;;;;;-144.99;94.34;52476.63;5026023;28;20347;-68
2023/03/04 00:39:59;;;;;;;;;;;;;;;-144.99;94.39;52460.31;5030070;28;19929;-69
2023/03/04 00:42:25;;;;;;;;;;;;;;;-144.99;94.62;52492.94;5029877;28;19985;-68
2023/03/04 00:44:52;;;;;;;;;;;;;;;-144.99;94.97;52492.94;5019628;28;19933;-69
2023/03/04 00:47:20;;;;;;;;;;;;;;;-144.99;95.06;52448.09;5022980;28;19925;-68
2023/03/04 00:49:46;;;;;;;;;;;;;;;-144.99;95.04;52492.94;5029703;28;20010;-69
2023/03/04 00:52:13;;;;;;;;;;;;;;;-144.99;95.55;52444.03;5029253;28;20367;-69
2023/03/04 00:54:39;;;;;;;;;;;;;;;-144.99;95.42;52492.94;5032822;28;19929;-68
2023/03/04 00:57:06;;;;;;;;;;;;;;;-144.99;95.70;52456.25;5028330;28;20460;-68
2023/03/04 00:59:32;;;;;;;;;;;;;;;-144.99;95.93;52507.19;5029164;28;19929;-67
2023/03/04 01:01:59;;;;;;;;;;;;;;;-144.99;95.54;52444.03;5029271;28;19928;-68
2023/03/04 01:04:27;;;;;;;;;;;;;;;-144.99;95.67;52466.44;5021082;28;20195;-68
2023/03/04 01:06:54;;;;;;;;;;;;;;;-144.99;96.02;52472.56;5025105;28;20128;-68
2023/03/04 01:09:20;;;;;;;;;;;;;;;-144.99;96.64;52480.72;5020595;28;19925;-68
2023/03/04 01:11:47;;;;;;;;;;;;;;;-144.99;97.20;52476.63;5029327;28;19986;-67
2023/03/04 01:14:13;;;;;;;;;;;;;;;-144.99;96.82;52460.31;5028359;28;19925;-66
2023/03/04 01:16:40;;;;;;;;;;;;;;;-144.99;96.41;52476.63;5029254;28;20525;-67
2023/03/04 01:19:06;;;;;;;;;;;;;;;-144.99;96.84;52460.31;5022222;28;19987;-67
2023/03/04 01:21:34;;;;;;;;;;;;;;;-144.99;96.61;52456.25;5029477;28;19925;-68
2023/03/04 01:24:01;;;;;;;;;;;;;;;-144.99;96.54;52482.75;5033057;28;20271;-67
2023/03/04 01:26:27;;;;;;;;;;;;;;;-144.99;97.08;52458.28;5029750;28;20335;-69
2023/03/04 01:28:54;;;;;;;;;;;;;;;-144.99;97.48;52503.13;5021869;28;20375;-68
2023/03/04 01:31:20;;;;;;;;;;;;;;;-144.99;97.91;52509.25;5022463;28;20340;-69
2023/03/04 01:33:47;;;;;;;;;;;;;;;-144.99;97.52;52468.47;5029273;28;19925;-65
2023/03/04 01:36:13;;;;;;;;;;;;;;;-144.99;97.42;52446.06;5031281;28;20449;-65
2023/03/04 01:38:41;;;;;;;;;;;;;;;-144.99;97.28;52490.91;5020904;28;19971;-62
2023/03/04 01:41:08;;;;;;;;;;;;;;;-144.99;97.67;52484.78;5028515;28;19968;-62
2023/03/04 01:43:36;;;;;;;;;;;;;;;-144.99;98.49;52476.63;5028922;28;19991;-63
2023/03/04 01:46:03;;;;;;;;;;;;;;;-144.99;98.32;52488.84;5023965;28;19968;-64
2023/03/04 01:48:32;;;;;;;;;;;;;;;-144.99;98.47;52505.16;5026890;28;20527;-64
2023/03/04 01:51:01;;;;;;;;;;;;;;;-144.99;98.63;52460.31;5024322;28;20878;-64
2023/03/04 01:53:29;;;;;;;;;;;;;;;-144.99;98.49;52458.28;5022119;28;19979;-63
2023/03/04 01:55:58;;;;;;;;;;;;;;;-144.99;99.01;52472.56;5028791;28;19979;-62
2023/03/04 01:58:25;;;;;;;;;;;;;;;-144.99;99.13;52460.31;5028237;28;20341;-62
2023/03/04 02:00:51;;;;;;;;;;;;;;;-144.99;99.00;52488.84;5021272;28;19925;-66
2023/03/04 02:03:19;;;;;;;;;;;;;;;-144.99;98.37;52464.41;5028489;28;20421;-68
2023/03/04 02:05:48;;;;;;;;;;;;;;;-144.99;98.38;52492.94;5028256;28;20013;-68
2023/03/04 02:08:15;;;;;;;;;;;;;;;-144.99;98.65;52460.31;5029921;28;19929;-68
2023/03/04 02:10:43;;;;;;;;;;;;;;;-144.99;98.66;52472.56;5027012;28;19925;-71
2023/03/04 02:13:11;;;;;;;;;;;;;;;-144.99;98.35;52501.09;5017444;28;19931;-69
2023/03/04 02:15:38;;;;;;;;;;;;;;;-144.99;98.94;52476.63;5032636;28;19933;-69
2023/03/04 02:18:07;;;;;;;;;;;;;;;-144.99;98.73;52505.16;5035535;28;19932;-69
2023/03/04 02:20:42;;;;;;;;;;;;;;;-144.99;99.22;52484.78;5030118;28;19929;-70
2023/03/04 02:23:11;;;;;;;;;;;;;;;-144.99;99.47;52476.63;5033849;28;19941;-69
2023/03/04 02:25:43;;;;;;;;;;;;;;;-144.99;99.90;52488.84;5030215;28;20455;-68
2023/03/04 02:28:11;;;;;;;;;;;;;;;-144.99;99.79;52484.78;5031653;28;20362;-68
2023/03/04 02:30:37;;;;;;;;;;;;;;;-144.99;99.46;52452.16;5028033;28;20165;-69
2023/03/04 02:33:04;;;;;;;;;;;;;;;-144.99;99.03;52476.63;5022383;28;19925;-67
2023/03/04 02:35:31;;;;;;;;;;;;;;;-144.99;99.41;52446.06;5032028;28;19980;-67
2023/03/04 02:37:57;;;;;;;;;;;;;;;-144.99;100.00;52444.03;5021833;28;20008;-67
2023/03/04 02:40:27;;;;;;;;;;;;;;;-144.99;99.23;52454.22;5032061;28;19929;-67
2023/03/04 02:42:53;;;;;;;;;;;;;;;-144.99;100.00;52494.97;5023354;28;19971;-67
2023/03/04 02:45:38;;;;;;;;;;;;;;;-144.99;100.00;52499.06;5025911;28;19991;-67
2023/03/04 02:48:04;;;;;;;;;;;;;;;-144.99;100.00;52480.72;5028373;28;19925;-67
2023/03/04 02:50:33;;;;;;;;;;;;;;;-144.99;99.47;52472.56;5031368;28;20416;-67
2023/03/04 02:53:00;;;;;;;;;;;;;;;-144.99;99.64;52497.00;5018802;28;20357;-66
2023/03/04 02:55:27;;;;;;;;;;;;;;;-144.99;99.61;52456.25;5023765;28;19933;-67
2023/03/04 02:57:53;;;;;;;;;;;;;;;-144.99;99.38;52456.25;5031599;28;20299;-66
2023/03/04 03:00:20;;;;;;;;;;;;;;;-144.99;99.00;52444.03;5034669;28;20007;-65
2023/03/04 03:02:48;;;;;;;;;;;;;;;-144.99;99.06;52452.16;5030866;28;20039;-67
2023/03/04 03:05:15;;;;;;;;;;;;;;;-144.99;100.00;52452.16;5030850;28;19930;-67
2023/03/04 03:07:41;;;;;;;;;;;;;;;-144.99;100.00;52509.25;5026206;28;20333;-66
2023/03/04 03:10:08;;;;;;;;;;;;;;;-144.99;100.00;52472.56;5028336;28;20046;-65
2023/03/04 03:12:35;;;;;;;;;;;;;;;-144.99;100.00;52468.47;5023522;28;19925;-67
2023/03/04 03:15:01;;;;;;;;;;;;;;;-144.99;100.00;52476.63;5031913;28;20079;-67
2023/03/04 03:17:28;;;;;;;;;;;;;;;-144.99;100.00;52501.09;5031225;28;20345;-68
2023/03/04 03:19:56;;;;;;;;;;;;;;;-144.99;100.00;52439.94;5030498;28;19991;-67
2023/03/04 03:22:22;;;;;;;;;;;;;;;-144.99;100.00;52513.31;5031104;28;19924;-69
2023/03/04 03:24:49;;;;;;;;;;;;;;;-144.99;100.00;52505.16;5031007;28;19956;-68
2023/03/04 03:27:15;;;;;;;;;;;;;;;-144.99;100.00;52488.84;5030859;28;19929;-67
2023/03/04 03:29:42;;;;;;;;;;;;;;;-144.99;100.00;52462.34;5031077;28;19925;-69
2023/03/04 03:32:09;;;;;;;;;;;;;;;-144.99;100.00;52460.31;5032126;28;19932;-70
2023/03/04 03:34:35;;;;;;;;;;;;;;;-144.99;100.00;52433.81;5031007;28;20251;-69
2023/03/04 03:37:03;;;;;;;;;;;;;;;-144.99;100.00;52476.63;5031127;28;20394;-69
2023/03/04 03:39:29;;;;;;;;;;;;;;;-144.99;100.00;52437.91;5030222;28;19972;-68
2023/03/04 03:41:56;;;;;;;;;;;;;;;-144.99;100.00;52444.03;5029180;28;19969;-68
2023/03/04 03:44:22;;;;;;;;;;;;;;;-144.99;100.00;52464.41;5039456;28;20468;-68
2023/03/04 03:46:49;;;;;;;;;;;;;;;-144.99;100.00;52439.94;5026513;28;19998;-68
2023/03/04 03:49:16;;;;;;;;;;;;;;;-144.99;100.00;52480.72;5029393;28;19933;-68
2023/03/04 03:51:43;;;;;;;;;;;;;;;-144.99;100.00;52425.66;5031206;28;20430;-67
2023/03/04 03:54:11;;;;;;;;;;;;;;;-144.99;99.68;52464.41;5030242;28;20318;-67
2023/03/04 03:56:37;;;;;;;;;;;;;;;-144.99;99.56;52456.25;5030805;28;19999;-67
2023/03/04 03:59:04;;;;;;;;;;;;;;;-144.99;97.75;52476.63;5025075;28;20018;-67
2023/03/04 04:01:32;;;;;;;;;;;;;;;-144.99;97.06;52431.78;5024978;28;19956;-67
2023/03/04 04:03:59;;;;;;;;;;;;;;;-144.99;96.28;52427.72;5030198;28;19925;-62
2023/03/04 04:06:25;;;;;;;;;;;;;;;-144.99;95.63;52448.09;5031029;28;20440;-62
2023/03/04 04:08:52;;;;;;;;;;;;;;;-144.99;95.64;52460.31;5021010;28;20012;-62
2023/03/04 04:11:20;;;;;;;;;;;;;;;-144.99;96.46;52470.50;5030480;28;19925;-62
2023/03/04 04:13:46;;;;;;;;;;;;;;;-144.99;96.62;52474.59;5029954;28;20282;-62
2023/03/04 04:16:13;;;;;;;;;;;;;;;-144.99;97.44;52482.75;5030298;28;19995;-63
2023/03/04 04:18:39;;;;;;;;;;;;;;;-144.99;96.47;52460.31;5029979;28;19925;-63
2023/03/04 04:21:06;;;;;;;;;;;;;;;-144.99;95.32;52480.72;5030276;28;19932;-68
2023/03/04 04:23:32;;;;;;;;;;;;;;;-144.99;94.24;52505.16;5030323;28;19933;-69
2023/03/04 04:25:59;;;;;;;;;;;;;;;-144.99;93.65;52472.56;5035958;28;19982;-69
2023/03/04 04:28:27;;;;;;;;;;;;;;;-144.99;93.18;52470.50;5031436;28;19933;-69
2023/03/04 04:30:54;;;;;;;;;;;;;;;-144.99;93.58;52472.56;5030308;28;19929;-68
2023/03/04 04:33:20;;;;;;;;;;;;;;;-144.99;94.14;52450.13;5028398;28;19929;-67
2023/03/04 04:35:47;;;;;;;;;;;;;;;-144.99;96.07;52460.31;5026467;28;19929;-67
2023/03/04 04:38:13;;;;;;;;;;;;;;;-144.99;96.69;52468.47;5029214;28;19925;-66
2023/03/04 04:40:41;;;;;;;;;;;;;;;-144.99;97.76;52476.63;5030076;28;20385;-66
2023/03/04 04:43:08;;;;;;;;;;;;;;;-144.99;98.45;52452.16;5021878;28;19925;-66
2023/03/04 04:45:36;;;;;;;;;;;;;;;-144.99;98.77;52444.03;5026190;28;19926;-67
2023/03/04 04:48:02;;;;;;;;;;;;;;;-144.99;98.53;52456.25;5025421;28;19999;-68
2023/03/04 04:50:29;;;;;;;;;;;;;;;-144.99;99.16;52464.41;5026031;28;20345;-68
2023/03/04 04:52:55;;;;;;;;;;;;;;;-144.99;100.00;52476.63;5032977;28;20452;-68
2023/03/04 04:55:22;;;;;;;;;;;;;;;-144.99;100.00;52472.56;5029348;28;19925;-68
2023/03/04 04:57:48;;;;;;;;;;;;;;;-144.99;100.00;52480.72;5029395;28;19933;-67
2023/03/04 05:00:17;;;;;;;;;;;;;;;-144.99;100.00;52464.41;5029243;28;19979;-68
2023/03/04 05:02:45;;;;;;;;;;;;;;;-144.99;98.68;52464.41;5032362;28;19929;-66
2023/03/04 05:05:12;;;;;;;;;;;;;;;-144.99;97.39;52464.41;5030392;28;20055;-66
2023/03/04 05:07:38;;;;;;;;;;;;;;;-144.99;96.71;52472.56;5022228;28;20318;-70
2023/03/04 05:10:05;;;;;;;;;;;;;;;-144.99;96.80;52472.56;5031232;28;19941;-67
2023/03/04 05:12:32;;;;;;;;;;;;;;;-144.99;97.64;52472.56;5019656;28;20343;-66
2023/03/04 05:14:58;;;;;;;;;;;;;;;-144.99;95.60;52464.41;5030939;28;19925;-66
2023/03/04 05:17:25;;;;;;;;;;;;;;;-144.99;94.99;52468.47;5027030;28;19925;-68
2023/03/04 05:19:53;;;;;;;;;;;;;;;-144.99;94.00;52460.31;5017492;28;19925;-69
2023/03/04 05:22:19;;;;;;;;;;;;;;;-144.99;93.15;52454.22;5013317;28;20030;-66
2023/03/04 05:24:46;;;;;;;;;;;;;;;-144.99;92.44;52472.56;5028599;28;20382;-69
2023/03/04 05:27:12;;;;;;;;;;;;;;;-144.99;90.61;52476.63;5028924;28;20282;-68
2023/03/04 05:29:39;;;;;;;;;;;;;;;-144.99;90.21;52468.47;5029089;28;19929;-68
2023/03/04 05:32:05;;;;;;;;;;;;;;;-144.99;90.60;52474.59;5029203;28;19926;-69
2023/03/04 05:34:32;;;;;;;;;;;;;;;-144.99;89.50;52478.66;5028561;28;19995;-69
2023/03/04 05:37:00;;;;;;;;;;;;;;;-144.99;89.07;52468.47;5023472;28;19929;-67
2023/03/04 05:39:26;;;;;;;;;;;;;;;-144.99;88.57;52472.56;5021780;28;19984;-67
2023/03/04 05:41:53;;;;;;;;;;;;;;;-144.99;87.61;52513.31;5028033;28;19987;-66
2023/03/04 05:44:19;;;;;;;;;;;;;;;-144.99;87.07;52456.25;5027399;28;19925;-67
2023/03/04 05:46:46;;;;;;;;;;;;;;;-144.99;87.42;52468.47;5024915;28;19963;-66
2023/03/04 05:49:12;;;;;;;;;;;;;;;-144.99;87.57;52488.84;5029852;28;19929;-65
2023/03/04 05:51:39;;;;;;;;;;;;;;;-144.99;86.81;52513.31;5038047;28;19926;-70
2023/03/04 05:54:07;;;;;;;;;;;;;;;-144.99;87.02;52474.59;5031329;28;19925;-64
2023/03/04 05:56:33;;;;;;;;;;;;;;;-144.99;87.90;52441.97;5021079;28;20361;-64
2023/03/04 05:59:00;;;;;;;;;;;;;;;-144.99;85.81;52501.09;5028110;28;20304;-65
2023/03/04 06:01:26;;;;;;;;;;;;;;;-144.99;86.54;52515.34;5026258;28;19937;-64
2023/03/04 06:03:53;;;;;;;;;;;;;;;-144.99;85.28;52472.56;5027441;28;19925;-64
2023/03/04 06:06:19;;;;;;;;;;;;;;;-144.99;84.31;52488.84;5028740;28;19971;-64
2023/03/04 06:08:46;;;;;;;;;;;;;;;-144.99;85.02;52513.31;5020417;28;19972;-64
2023/03/04 06:11:14;;;;;;;;;;;;;;;-144.99;84.42;52464.41;5028667;28;19925;-64
2023/03/04 06:13:40;;;;;;;;;;;;;;;-144.99;84.54;52507.19;5028234;28;20412;-65
2023/03/04 06:16:07;;;;;;;;;;;;;;;-144.99;85.90;52490.91;5028356;28;20026;-65
2023/03/04 06:18:34;;;;;;;;;;;;;;;-144.99;85.74;52468.47;5028270;28;19929;-64
2023/03/04 06:21:01;;;;;;;;;;;;;;;-144.99;86.60;52490.91;5021114;28;19925;-67
2023/03/04 06:23:27;;;;;;;;;;;;;;;-144.99;85.56;52513.31;5027387;28;19933;-66
2023/03/04 06:25:55;;;;;;;;;;;;;;;-144.99;85.94;52480.72;5028704;28;19948;-67
2023/03/04 06:28:23;;;;;;;;;;;;;;;-144.99;86.00;52507.19;5027719;28;19925;-67
2023/03/04 06:30:51;;;;;;;;;;;;;;;-144.99;86.25;52494.97;5028488;28;19955;-67
2023/03/04 06:33:18;;;;;;;;;;;;;;;-144.99;85.89;52464.41;5033711;28;19994;-66
2023/03/04 06:35:44;;;;;;;;;;;;;;;-144.99;86.08;52486.81;5028110;28;19924;-66
2023/03/04 06:38:11;;;;;;;;;;;;;;;-144.99;86.49;52501.09;5021660;28;19925;-66
2023/03/04 06:40:37;;;;;;;;;;;;;;;-144.99;85.88;52529.63;5025334;28;20414;-67
2023/03/04 06:43:04;;;;;;;;;;;;;;;-144.99;85.84;52464.41;5019705;28;20378;-66
2023/03/04 06:45:32;;;;;;;;;;;;;;;-144.99;86.64;52505.16;5023081;28;20432;-66
2023/03/04 06:47:58;;;;;;;;;;;;;;;-144.99;86.39;52460.31;5029425;28;20158;-68
2023/03/04 06:50:25;;;;;;;;;;;;;;;-144.99;86.38;52480.72;5014858;28;20393;-70
2023/03/04 06:52:51;;;;;;;;;;;;;;;-144.99;86.25;52480.72;5030668;28;19925;-67
2023/03/04 06:55:18;;;;;;;;;;;;;;;-144.99;86.94;52480.72;5030531;28;19929;-69
2023/03/04 06:57:44;;;;;;;;;;;;;;;-144.99;87.25;52497.00;5033764;28;19933;-66
2023/03/04 07:00:11;;;;;;;;;;;;;;;-144.99;86.58;52509.25;5031062;28;19925;-68
2023/03/04 07:05:21;;;;;;;;;;;;;;;-144.99;88.47;52464.41;5061420;28;19932;-65
2023/03/04 07:07:48;;;;;;;;;;;;;;;-144.99;87.55;52480.72;5067728;28;20448;-64
2023/03/04 07:10:15;;;;;;;;;;;;;;;-144.99;85.76;52501.09;5063535;28;19939;-64
2023/03/04 07:12:41;;;;;;;;;;;;;;;-144.99;85.67;52476.63;5058960;28;19925;-67
2023/03/04 07:15:08;;;;;;;;;;;;;;;-144.99;86.11;52472.56;5066901;28;19985;-69
2023/03/04 07:17:35;;;;;;;;;;;;;;;-144.99;87.38;52503.13;5058699;28;20381;-71
2023/03/04 07:20:02;;;;;;;;;;;;;;;-144.99;86.79;52494.97;5068252;28;19990;-70
2023/03/04 07:22:29;;;;;;;;;;;;;;;-144.99;86.47;52509.25;5059500;28;19925;-71
2023/03/04 07:24:56;;;;;;;;;;;;;;;-144.99;86.40;52480.72;5062786;28;19924;-71
2023/03/04 07:27:23;;;;;;;;;;;;;;;-144.99;87.05;52513.31;5062472;28;19932;-70
2023/03/04 07:29:49;;;;;;;;;;;;;;;-144.99;86.70;52509.25;5063735;28;20366;-66
2023/03/04 07:32:16;;;;;;;;;;;;;;;-144.99;86.07;52497.00;5072542;28;20035;-66
2023/03/04 07:34:42;;;;;;;;;;;;;;;-144.99;85.45;52476.63;5060217;28;19928;-68
2023/03/04 07:37:09;;;;;;;;;;;;;;;-144.99;84.69;52492.94;5061687;28;20399;-69
2023/03/04 07:39:37;;;;;;;;;;;;;;;-144.99;85.00;52501.09;5068028;28;19932;-71
2023/03/04 07:42:03;;;;;;;;;;;;;;;-144.99;84.50;52507.19;5058489;28;19971;-71
2023/03/04 07:44:30;;;;;;;;;;;;;;;-144.99;84.98;52484.78;5059150;28;19972;-72
2023/03/04 07:46:56;;;;;;;;;;;;;;;-144.99;85.66;52476.63;5072510;28;20357;-67
2023/03/04 07:49:23;;;;;;;;;;;;;;;-144.99;86.09;52515.34;5062424;28;20069;-71
2023/03/04 07:51:49;;;;;;;;;;;;;;;-144.99;85.27;52539.81;5057678;28;20045;-71
2023/03/04 07:54:18;;;;;;;;;;;;;;;-144.99;85.35;52460.31;5058454;28;19985;-71
2023/03/04 07:56:46;;;;;;;;;;;;;;;-144.99;86.12;52497.00;5066121;28;19956;-73
2023/03/04 07:59:13;;;;;;;;;;;;;;;-144.99;85.45;52507.19;5071199;28;19981;-71
2023/03/04 08:01:39;;;;;;;;;;;;;;;-144.99;85.99;52484.78;5053512;28;19925;-71
2023/03/04 08:04:06;;;;;;;;;;;;;;;-144.99;90.07;52488.84;5059610;28;19976;-72
2023/03/04 08:06:33;;;;;;;;;;;;;;;-144.99;87.28;52484.78;5078253;28;19925;-72
2023/03/04 08:09:00;;;;;;;;;;;;;;;-144.99;84.24;52427.72;5065342;28;19925;-73
2023/03/04 08:11:28;;;;;;;;;;;;;;;-144.99;84.50;52509.25;5064157;28;20015;-73
2023/03/04 08:13:56;;;;;;;;;;;;;;;-144.99;83.98;52472.56;5066858;28;19929;-72
2023/03/04 08:16:24;;;;;;;;;;;;;;;-144.99;83.43;52480.72;5060641;28;19929;-71
2023/03/04 08:18:51;;;;;;;;;;;;;;;-144.99;84.02;52497.00;5068055;28;19969;-70
2023/03/04 08:21:18;;;;;;;;;;;;;;;-144.99;83.96;52452.16;5062329;28;19978;-71
2023/03/04 08:23:45;;;;;;;;;;;;;;;-144.99;83.59;52492.94;5066138;28;19957;-72
2023/03/04 08:26:12;;;;;;;;;;;;;;;-144.99;85.44;52521.47;5057483;28;20198;-71
2023/03/04 08:28:39;;;;;;;;;;;;;;;-144.99;83.91;52492.94;5073644;28;20397;-72
2023/03/04 08:31:07;;;;;;;;;;;;;;;-144.99;83.75;52501.09;5060143;28;19982;-71
2023/03/04 08:33:34;;;;;;;;;;;;;;;-144.99;83.11;52464.41;5058447;28;20083;-69
2023/03/04 08:36:00;;;;;;;;;;;;;;;-144.99;83.70;52507.19;5059246;28;19931;-71
2023/03/04 08:38:27;;;;;;;;;;;;;;;-144.99;83.47;52505.16;5051580;28;19968;-72
2023/03/04 08:40:54;;;;;;;;;;;;;;;-144.99;83.11;52484.78;5053705;28;20450;-72
2023/03/04 08:43:21;;;;;;;;;;;;;;;-144.99;83.11;52525.56;5056721;28;19932;-72
2023/03/04 08:45:47;;;;;;;;;;;;;;;-144.99;82.74;52488.84;5060120;28;19962;-71
2023/03/04 08:48:16;;;;;;;;;;;;;;;-144.99;82.69;52513.31;5079107;28;19967;-74
2023/03/04 08:50:43;;;;;;;;;;;;;;;-144.99;81.75;52501.09;5065241;28;19971;-71
2023/03/04 08:53:09;;;;;;;;;;;;;;;-144.99;81.43;52484.78;5058684;28;20440;-71
2023/03/04 08:55:37;;;;;;;;;;;;;;;-144.99;81.49;52456.25;5056151;28;19974;-71
2023/03/04 08:58:04;;;;;;;;;;;;;;;-144.99;81.44;52466.44;5066348;28;19978;-72
2023/03/04 09:00:31;;;;;;;;;;;;;;;-144.99;81.74;52521.47;5060486;28;19928;-71
2023/03/04 09:02:57;;;;;;;;;;;;;;;-144.99;83.34;52523.50;5057653;28;19925;-69
2023/03/04 09:05:25;;;;;;;;;;;;;;;-144.99;81.92;52517.41;5062027;28;19966;-72
2023/03/04 09:07:53;;;;;;;;;;;;;;;-144.99;81.72;52507.19;5054886;28;20142;-71
2023/03/04 09:10:19;;;;;;;;;;;;;;;-144.99;81.92;52521.47;5057589;28;19935;-71
2023/03/04 09:12:46;;;;;;;;;;;;;;;-144.99;81.46;52490.91;5062591;28;19928;-72
2023/03/04 09:15:13;;;;;;;;;;;;;;;-144.99;81.86;52517.41;5067503;28;19928;-71
2023/03/04 09:17:40;;;;;;;;;;;;;;;-144.99;81.64;52509.25;5055388;28;19924;-71
2023/03/04 09:20:08;;;;;;;;;;;;;;;-144.99;81.73;52501.09;5072170;28;19970;-72
2023/03/04 09:22:36;;;;;;;;;;;;;;;-144.99;81.32;52492.94;5060142;28;19929;-72
2023/03/04 09:25:03;;;;;;;;;;;;;;;-144.99;81.12;52470.50;5054257;28;19986;-72
2023/03/04 09:27:29;;;;;;;;;;;;;;;-144.99;81.28;52505.16;5059869;28;20351;-70
2023/03/04 09:29:56;;;;;;;;;;;;;;;-144.99;81.12;52499.06;4703677;28;9999735;-71
2023/03/04 09:32:22;;;;;;;;;;;;;;;-144.99;81.04;52472.56;5049022;28;20034;-72
2023/03/04 09:34:49;;;;;;;;;;;;;;;-144.99;80.75;52490.91;5055763;28;20393;-70
2023/03/04 09:37:15;;;;;;;;;;;;;;;-144.99;80.76;52492.94;5049708;28;20096;-71
2023/03/04 09:39:43;;;;;;;;;;;;;;;-144.99;79.92;52466.44;5056614;28;19974;-71
2023/03/04 09:42:17;;;;;;;;;;;;;;;-144.99;79.26;52497.00;5062041;28;19967;-72
2023/03/04 09:44:44;;;;;;;;;;;;;;;-144.99;78.56;52484.78;5057334;28;20008;-70
2023/03/04 09:47:12;;;;;;;;;;;;;;;-144.99;77.72;52460.31;5057437;28;20004;-71
2023/03/04 09:49:40;;;;;;;;;;;;;;;-144.99;77.15;52509.25;5059390;28;20456;-70
2023/03/04 09:52:13;;;;;;;;;;;;;;;-144.99;77.56;52505.16;5059975;28;19971;-71
2023/03/04 09:54:50;;;;;;;;;;;;;;;-144.99;77.79;52472.56;5051237;28;19932;-71
2023/03/04 09:57:21;;;;;;;;;;;;;;;-144.99;77.90;52462.34;5049432;28;19928;-73
2023/03/04 09:59:53;;;;;;;;;;;;;;;-144.99;78.56;52476.63;5051059;28;19967;-71
2023/03/04 10:02:24;;;;;;;;;;;;;;;-144.99;78.43;52456.25;5049821;28;19932;-71
2023/03/04 10:04:52;;;;;;;;;;;;;;;-144.99;78.43;52515.34;5047683;28;19935;-72
2023/03/04 10:07:22;;;;;;;;;;;;;;;-144.99;78.50;52509.25;5048584;28;19963;-73
2023/03/04 10:09:53;;;;;;;;;;;;;;;-144.99;78.59;52452.16;5046065;28;19964;-71
2023/03/04 10:12:22;;;;;;;;;;;;;;;-144.99;78.75;52497.00;5048496;28;19928;-72
2023/03/04 10:14:50;;;;;;;;;;;;;;;-144.99;78.72;52513.31;5055657;28;19982;-71
2023/03/04 10:17:19;;;;;;;;;;;;;;;-144.99;78.10;52521.47;5050017;28;19960;-72
2023/03/04 10:19:51;;;;;;;;;;;;;;;-144.99;77.71;52482.75;5048913;28;19972;-72
2023/03/04 10:22:20;;;;;;;;;;;;;;;-144.99;77.17;52472.56;5044872;28;19954;-73
2023/03/04 10:24:47;;;;;;;;;;;;;;;-144.99;76.76;52484.78;5061549;28;19939;-72
2023/03/04 10:27:18;;;;;;;;;;;;;;;-144.99;75.47;52488.84;5058201;28;20300;-71
2023/03/04 10:29:45;;;;;;;;;;;;;;;-144.99;74.75;52472.56;5057132;28;19928;-74
2023/03/04 10:32:13;;;;;;;;;;;;;;;-144.99;74.06;52448.09;5066389;28;20443;-74
2023/03/04 10:34:40;;;;;;;;;;;;;;;-144.99;73.88;52460.31;5060890;28;19968;-71
2023/03/04 10:37:07;;;;;;;;;;;;;;;-144.99;73.79;52480.72;5055205;28;19928;-72
2023/03/04 10:39:35;;;;;;;;;;;;;;;-144.99;73.91;52472.56;5066406;28;20368;-72
2023/03/04 10:42:03;;;;;;;;;;;;;;;-144.99;74.20;52494.97;5057401;28;19929;-73
2023/03/04 10:44:32;;;;;;;;;;;;;;;-144.99;76.18;52468.47;5059561;28;19982;-74
2023/03/04 10:46:59;;;;;;;;;;;;;;;-144.99;77.26;52468.47;5067377;28;20412;-72
2023/03/04 10:49:26;;;;;;;;;;;;;;;-144.99;77.11;52505.16;5054478;28;19965;-74
2023/03/04 10:51:54;;;;;;;;;;;;;;;-144.99;76.46;52448.09;5057644;28;19955;-73
2023/03/04 10:54:25;;;;;;;;;;;;;;;-144.99;76.20;52484.78;5060288;28;20307;-71
2023/03/04 10:56:56;;;;;;;;;;;;;;;-144.99;75.77;52484.78;5069731;28;19940;-70
2023/03/04 10:59:52;;;;;;;;;;;;;;;-144.99;75.23;52456.25;5068554;28;20305;-70
2023/03/04 11:02:24;;;;;;;;;;;;;;;-144.99;74.72;52464.41;5056736;28;20462;-70
2023/03/04 11:04:55;;;;;;;;;;;;;;;-144.99;74.85;52448.09;5065819;28;19928;-70
2023/03/04 11:07:23;;;;;;;;;;;;;;;-144.99;74.92;52494.97;5066407;28;19986;-70
2023/03/04 11:09:50;;;;;;;;;;;;;;;-144.99;75.96;52484.78;5066731;28;20200;-70
2023/03/04 11:12:17;;;;;;;;;;;;;;;-144.99;75.82;52505.16;5066023;28;19928;-70
2023/03/04 11:14:47;;;;;;;;;;;;;;;-144.99;75.76;52468.47;5067560;28;19968;-70
2023/03/04 11:17:19;;;;;;;;;;;;;;;-144.99;75.84;52505.16;5067448;28;19932;-70
2023/03/04 11:19:51;;;;;;;;;;;;;;;-144.99;76.38;52488.84;5058013;28;19998;-72
2023/03/04 11:22:20;;;;;;;;;;;;;;;-144.99;76.41;52480.72;5068225;28;19980;-73
2023/03/04 11:24:49;;;;;;;;;;;;;;;-144.99;76.54;52464.41;5065719;28;19929;-72
2023/03/04 11:27:18;;;;;;;;;;;;;;;-144.99;76.87;52501.09;5053783;28;19929;-72
2023/03/04 11:29:48;;;;;;;;;;;;;;;-144.99;76.79;52439.94;5063515;28;20044;-72
2023/03/04 11:32:19;;;;;;;;;;;;;;;-144.99;76.83;52511.28;5074610;28;19928;-73
2023/03/04 11:34:49;;;;;;;;;;;;;;;-144.99;76.73;52476.63;5058425;28;19990;-72
2023/03/04 11:37:22;;;;;;;;;;;;;;;-144.99;77.33;52505.16;5062091;28;20021;-72
2023/03/04 11:39:52;;;;;;;;;;;;;;;-144.99;79.68;52462.34;5052883;28;20027;-74
2023/03/04 11:42:24;;;;;;;;;;;;;;;-144.99;79.16;52448.09;5064158;28;20022;-74
2023/03/04 11:44:51;;;;;;;;;;;;;;;-144.99;76.06;52488.84;5067864;28;20005;-74
2023/03/04 11:47:27;;;;;;;;;;;;;;;-144.99;76.10;52486.81;5054730;28;19960;-73
2023/03/04 11:50:01;;;;;;;;;;;;;;;-144.99;75.85;52484.78;5056362;28;19933;-72
2023/03/04 11:52:33;;;;;;;;;;;;;;;-144.99;76.27;52476.63;5067607;28;19986;-73
2023/03/04 11:55:04;;;;;;;;;;;;;;;-144.99;76.52;52464.41;5066465;28;19928;-74
2023/03/04 11:57:34;;;;;;;;;;;;;;;-144.99;77.09;52484.78;5059023;28;20342;-72
2023/03/04 12:00:15;;;;;;;;;;;;;;;-144.99;76.41;52460.31;5062778;28;19970;-73
2023/03/04 12:02:47;;;;;;;;;;;;;;;-144.99;74.94;52407.31;5063603;28;19933;-72
2023/03/04 12:05:19;;;;;;;;;;;;;;;-144.99;73.35;52427.72;5055233;28;19982;-73
2023/03/04 12:07:59;;;;;;;;;;;;;;;-144.99;72.10;52433.81;5057102;28;20014;-72
2023/03/04 12:10:29;;;;;;;;;;;;;;;-144.99;72.53;52444.03;5063861;28;20009;-73
2023/03/04 12:13:07;;;;;;;;;;;;;;;-144.99;72.63;52464.41;5059016;28;19959;-72
2023/03/04 12:15:39;;;;;;;;;;;;;;;-144.99;73.58;52492.94;5064267;28;20465;-72
2023/03/04 12:18:15;;;;;;;;;;;;;;;-144.99;73.41;52482.75;5053317;28;20370;-72
2023/03/04 12:20:47;;;;;;;;;;;;;;;-144.99;73.42;52470.50;4706735;28;10000367;-73
2023/03/04 12:23:24;;;;;;;;;;;;;;;-144.99;73.54;52480.72;5062617;28;20385;-73
2023/03/04 12:25:56;;;;;;;;;;;;;;;-144.99;74.12;52466.44;5060418;28;19928;-74
2023/03/04 12:28:36;;;;;;;;;;;;;;;-144.99;74.36;52464.41;5052112;28;19971;-73
2023/03/04 12:31:07;;;;;;;;;;;;;;;-144.99;73.94;52476.63;5061494;28;19925;-73